Terminal Aerodrome Forecast
Issued by NWS Columbia, SC

Current Version | Previous Version | Text Only | Print | Product List | Glossary On
Versions: 1 2 3 4 5 6 7 8 9 10 11 12 13 14 15 16 17 18 19 20 21 22 23 24 25 26 27 28 29 30 31 32 33
000
FTUS42 KCAE 181000 AAB
TAFCAE
TAF AMD
KCAE 181018Z 1810/1906 00000KT 6SM BR SCT004 BKN030
     FM181100 VRB03KT 4SM BR BKN004
     FM181500 06005KT P6SM SCT012 BKN020
     FM181800 08005KT P6SM SCT050=

USA.gov is the U.S. government's official web portal to all federal, state and local government web resources and services.